Time;durP1;ratioP1;P1;durP2;ratioP2;P2;SDS_P1;SDS_P2;PMS_P1;PMS_P2;Temp;Humidity;BMP_temperature;BMP_pressure;BME280_temperature;BME280_humidity;BME280_pressure;Samples;Min_cycle;Max_cycle;Signal;HPM_P1;HPM_P2
2024/01/01 00:02:21;;;;;;;21.27;13.17;;;9.20;1.00;;;;;;2615122;54;20122;-73
2024/01/01 00:08:09;;;;;;;12.23;7.30;;;9.30;1.00;;;;;;2615137;54;20656;-72
2024/01/01 00:13:56;;;;;;;22.30;11.50;;;9.30;1.00;;;;;;2615049;54;20673;-78
2024/01/01 00:19:44;;;;;;;32.60;8.53;;;9.40;1.00;;;;;;2615448;39;20530;-77
2024/01/01 00:25:35;;;;;;;19.23;11.67;;;9.40;1.00;;;;;;2615138;54;20182;-78
2024/01/01 00:31:23;;;;;;;17.97;8.27;;;9.40;1.00;;;;;;2614977;54;20454;-78
2024/01/01 00:37:11;;;;;;;17.27;11.20;;;9.30;1.00;;;;;;2614637;54;20150;-78
2024/01/01 00:42:59;;;;;;;9.00;5.90;;;9.40;1.00;;;;;;2614176;54;20207;-77
2024/01/01 00:46:17;;;;;;;15.43;7.40;;;9.30;1.00;;;;;;2614379;47;20971;-78
2024/01/01 00:48:43;;;;;;;9.17;7.13;;;9.40;1.00;;;;;;2615294;54;20143;-77
2024/01/01 00:54:31;;;;;;;10.93;7.30;;;9.30;1.00;;;;;;2615044;54;20383;-76
2024/01/01 01:00:18;;;;;;;9.47;5.83;;;9.20;1.00;;;;;;2614946;54;20150;-79
2024/01/01 01:06:06;;;;;;;12.90;5.50;;;9.20;1.00;;;;;;2614853;54;20133;-77
2024/01/01 01:11:54;;;;;;;11.50;4.17;;;9.10;1.00;;;;;;2614599;54;20177;-73
2024/01/01 01:17:42;;;;;;;16.47;5.93;;;9.10;1.00;;;;;;2615172;54;20642;-79
2024/01/01 01:23:30;;;;;;;12.17;4.70;;;9.00;1.00;;;;;;2614966;54;20140;-79
2024/01/01 01:29:17;;;;;;;7.67;5.13;;;9.00;1.00;;;;;;2614780;54;20435;-77
2024/01/01 01:35:06;;;;;;;11.23;4.57;;;8.80;1.00;;;;;;2614715;54;20157;-77
2024/01/01 01:40:54;;;;;;;11.30;3.73;;;8.80;1.00;;;;;;2614553;54;20416;-78
2024/01/01 01:50:45;;;;;;;8.07;4.27;;;8.90;1.00;;;;;;2615214;54;20369;-79
2024/01/01 01:56:33;;;;;;;3.20;2.30;;;8.90;1.00;;;;;;2615191;54;20385;-78
2024/01/01 02:02:23;;;;;;;7.30;2.40;;;8.90;1.00;;;;;;2614684;54;20643;-78
2024/01/01 02:08:11;;;;;;;9.97;3.00;;;9.00;1.00;;;;;;2615227;54;20390;-78
2024/01/01 02:14:12;;;;;;;11.63;3.03;;;8.90;1.00;;;;;;2614484;54;20395;-77
2024/01/01 02:19:59;;;;;;;9.00;2.13;;;8.90;1.00;;;;;;2614863;54;20350;-77
2024/01/01 02:25:47;;;;;;;9.07;2.70;;;9.00;1.00;;;;;;2614501;54;20393;-72
2024/01/01 02:31:35;;;;;;;11.10;2.53;;;8.20;1.00;;;;;;2614847;54;20364;-71
2024/01/01 02:37:23;;;;;;;10.23;2.00;;;6.70;99.90;;;;;;2614448;54;20156;-76
2024/01/01 02:43:11;;;;;;;9.17;2.30;;;6.50;99.90;;;;;;2614461;54;20126;-77
2024/01/01 02:46:14;;;;;;;14.40;2.53;;;6.40;99.90;;;;;;2614888;54;20426;-73
2024/01/01 02:48:40;;;;;;;36.80;2.17;;;6.30;99.90;;;;;;2614707;54;20158;-73
2024/01/01 02:54:27;;;;;;;3.33;1.53;;;5.90;99.90;;;;;;2614189;54;20143;-73
2024/01/01 03:00:16;;;;;;;2.80;1.87;;;5.10;99.90;;;;;;2614772;54;20149;-73
2024/01/01 03:05:45;;;;;;;2.73;1.30;;;5.40;99.90;;;;;;2614353;54;20373;-72
2024/01/01 03:11:33;;;;;;;6.87;2.40;;;5.40;99.90;;;;;;2614494;54;20148;-73
2024/01/01 03:17:21;;;;;;;8.57;3.30;;;5.60;99.90;;;;;;2614467;54;20129;-72
2024/01/01 03:23:09;;;;;;;4.53;2.10;;;5.80;99.90;;;;;;2614419;54;20242;-73
2024/01/01 03:28:56;;;;;;;9.70;2.70;;;6.00;99.90;;;;;;2615335;54;20135;-72
2024/01/01 03:34:44;;;;;;;10.37;2.27;;;5.90;99.90;;;;;;2614989;54;20163;-73
2024/01/01 03:40:32;;;;;;;6.03;2.23;;;6.30;99.90;;;;;;2615657;54;20212;-72
2024/01/01 03:46:20;;;;;;;6.93;2.30;;;;;;;;;;2615254;54;20129;-74
2024/01/01 03:51:52;;;;;;;10.40;2.50;;;6.80;99.90;;;;;;2615325;54;20514;-76
2024/01/01 03:57:22;;;;;;;10.40;2.43;;;;;;;;;;2615095;54;20337;-72
2024/01/01 04:02:52;;;;;;;10.80;3.70;;;;;;;;;;2614998;54;20380;-72
2024/01/01 04:08:21;;;;;;;5.03;1.50;;;;;;;;;;2615140;54;20897;-72
2024/01/01 04:13:51;;;;;;;11.60;2.67;;;;;;;;;;2614800;54;21081;-73
2024/01/01 04:19:24;;;;;;;10.10;3.50;;;;;;;;;;2615138;54;20350;-72
2024/01/01 04:25:12;;;;;;;7.70;2.80;;;7.00;99.90;;;;;;2615089;54;20409;-71
2024/01/01 04:31:00;;;;;;;9.30;2.80;;;7.00;99.90;;;;;;2615337;54;20122;-73
2024/01/01 04:36:47;;;;;;;12.13;2.47;;;7.10;99.90;;;;;;2614631;54;20400;-75
2024/01/01 04:42:35;;;;;;;13.77;5.73;;;7.10;98.80;;;;;;2614965;54;20668;-73
2024/01/01 04:48:22;;;;;;;8.20;2.70;;;7.10;52.00;;;;;;2615042;46;20169;-72
2024/01/01 04:53:52;;;;;;;8.10;2.57;;;;;;;;;;2614604;54;20112;-73
2024/01/01 04:59:22;;;;;;;7.30;2.70;;;;;;;;;;2614788;54;20382;-73
2024/01/01 05:04:51;;;;;;;6.00;2.27;;;;;;;;;;2614758;54;20402;-72
2024/01/01 05:10:21;;;;;;;14.37;2.80;;;;;;;;;;2614928;54;20406;-72
2024/01/01 05:15:51;;;;;;;6.03;2.23;;;;;;;;;;2615311;31;20867;-73
2024/01/01 05:18:36;;;;;;;6.93;2.43;;;;;;;;;;2614185;54;20479;-72
2024/01/01 05:21:02;;;;;;;7.20;2.53;;;;;;;;;;2614644;39;20817;-72
2024/01/01 05:26:32;;;;;;;5.37;2.07;;;;;;;;;;2614999;54;20876;-72
2024/01/01 05:32:02;;;;;;;13.33;3.87;;;;;;;;;;2615337;54;20435;-72
2024/01/01 05:37:32;;;;;;;5.80;2.20;;;;;;;;;;2615840;39;20815;-72
2024/01/01 05:43:01;;;;;;;8.63;2.00;;;;;;;;;;2614899;54;20398;-74
2024/01/01 05:48:31;;;;;;;12.47;3.10;;;;;;;;;;2614608;39;20844;-72
2024/01/01 05:54:00;;;;;;;5.13;2.60;;;;;;;;;;2614692;54;20562;-72
2024/01/01 05:59:30;;;;;;;9.87;2.30;;;;;;;;;;2614736;54;20361;-71
2024/01/01 06:05:00;;;;;;;8.40;1.80;;;;;;;;;;2614322;54;20440;-72
2024/01/01 06:10:31;;;;;;;6.97;2.40;;;;;;;;;;2615047;54;20439;-72
2024/01/01 06:16:03;;;;;;;10.73;2.50;;;;;;;;;;2614881;54;20463;-73
2024/01/01 06:21:32;;;;;;;10.70;2.53;;;;;;;;;;2614589;54;20406;-73
2024/01/01 06:27:02;;;;;;;8.60;2.37;;;;;;;;;;2614751;54;20384;-72
2024/01/01 06:32:32;;;;;;;3.57;1.80;;;;;;;;;;2614663;54;20397;-71
2024/01/01 06:38:02;;;;;;;4.60;1.87;;;;;;;;;;2614687;54;20375;-73
2024/01/01 06:43:33;;;;;;;4.57;1.40;;;;;;;;;;2615002;54;20962;-72
2024/01/01 06:46:18;;;;;;;6.10;2.00;;;;;;;;;;2613089;54;20915;-72
2024/01/01 06:48:44;;;;;;;6.97;2.10;;;;;;;;;;2614346;54;20520;-72
2024/01/01 06:54:14;;;;;;;26.33;2.93;;;;;;;;;;2614629;54;20358;-73
2024/01/01 06:59:45;;;;;;;7.20;1.67;;;;;;;;;;2614360;54;20358;-72
2024/01/01 07:05:15;;;;;;;2.60;1.40;;;;;;;;;;2614733;39;20876;-73
2024/01/01 07:10:44;;;;;;;3.03;1.90;;;;;;;;;;2614457;54;20421;-71
2024/01/01 07:16:14;;;;;;;2.50;1.40;;;;;;;;;;2614535;54;20968;-73
2024/01/01 07:21:44;;;;;;;7.80;2.00;;;;;;;;;;2614444;54;20336;-71
2024/01/01 07:27:13;;;;;;;6.97;1.77;;;;;;;;;;2614116;54;20379;-72
2024/01/01 07:32:43;;;;;;;10.67;2.23;;;;;;;;;;2614161;54;20355;-71
2024/01/01 07:38:13;;;;;;;5.97;2.90;;;;;;;;;;2613505;54;20365;-71
2024/01/01 07:43:43;;;;;;;3.40;1.30;;;;;;;;;;2613796;54;21143;-70
2024/01/01 07:55:32;;;;;;;5.63;2.57;;;;;;;;;;2613004;54;20410;-71
2024/01/01 08:01:03;;;;;;;2.50;1.20;;;;;;;;;;2612573;54;20434;-70
2024/01/01 08:06:31;;;;;;;8.33;2.13;;;;;;;;;;2612687;54;20421;-70
2024/01/01 08:12:00;;;;;;;6.13;1.80;;;;;;;;;;2613416;39;20821;-71
2024/01/01 08:17:31;;;;;;;9.53;3.13;;;;;;;;;;2614161;54;20392;-72
2024/01/01 08:23:00;;;;;;;5.47;2.27;;;;;;;;;;2613904;54;20389;-71
2024/01/01 08:28:32;;;;;;;4.60;2.10;;;;;;;;;;2614897;54;20391;-70
2024/01/01 08:34:01;;;;;;;3.33;1.20;;;;;;;;;;2615139;39;20758;-71
2024/01/01 08:39:31;;;;;;;8.00;2.13;;;;;;;;;;2615265;54;20410;-72
2024/01/01 08:45:01;;;;;;;2.87;1.83;;;;;;;;;;2614878;54;20412;-70
2024/01/01 08:59:57;;;;;;;4.30;1.70;;;;;;;;;;2613234;54;20391;-71
2024/01/01 09:05:26;;;;;;;7.77;1.70;;;;;;;;;;2613068;54;20433;-70
2024/01/01 09:10:56;;;;;;;10.43;1.60;;;;;;;;;;2613421;54;20391;-70
2024/01/01 09:16:29;;;;;;;1.77;1.20;;;;;;;;;;2613407;54;21042;-72
2024/01/01 09:21:59;;;;;;;6.60;2.10;;;;;;;;;;2613335;54;20904;-71
2024/01/01 09:27:28;;;;;;;2.83;1.80;;;;;;;;;;2613523;54;20956;-70
2024/01/01 09:32:58;;;;;;;7.40;1.90;;;;;;;;;;2614390;54;20378;-71
2024/01/01 09:38:27;;;;;;;7.13;1.70;;;;;;;;;;2614876;54;21043;-72
2024/01/01 09:44:01;;;;;;;5.33;1.60;;;;;;;;;;2614945;54;20476;-71
2024/01/01 09:49:31;;;;;;;3.70;2.13;;;;;;;;;;2614993;54;20950;-76
2024/01/01 09:55:07;;;;;;;5.63;1.80;;;;;;;;;;2615135;54;20955;-76
2024/01/01 10:00:42;;;;;;;4.77;1.60;;;;;;;;;;2615161;54;21014;-76
2024/01/01 10:06:12;;;;;;;8.23;2.00;;;;;;;;;;2615096;54;20429;-76
2024/01/01 10:11:42;;;;;;;3.03;1.93;;;;;;;;;;2615379;54;20365;-76
2024/01/01 10:17:13;;;;;;;4.00;1.57;;;;;;;;;;2615213;54;20967;-76
2024/01/01 10:22:42;;;;;;;5.40;2.23;;;;;;;;;;2614914;54;20339;-76
2024/01/01 10:28:14;;;;;;;2.47;1.80;;;;;;;;;;2615091;54;20392;-75
2024/01/01 10:33:48;;;;;;;5.27;1.77;;;;;;;;;;2614729;54;20401;-75
2024/01/01 10:39:18;;;;;;;6.40;2.80;;;;;;;;;;2615306;39;20917;-75
2024/01/01 10:44:48;;;;;;;3.33;2.00;;;;;;;;;;2614765;54;20899;-75
2024/01/01 10:56:37;;;;;;;2.53;1.90;;;;;;;;;;2615213;54;20389;-75
2024/01/01 11:02:08;;;;;;;2.17;1.50;;;;;;;;;;2615809;39;20717;-74
2024/01/01 11:07:53;;;;;;;3.90;2.60;;;;;;;;;;2614545;54;20908;-75
2024/01/01 11:19:36;;;;;;;2.60;1.53;;;;;;;;;;2613266;54;20378;-75
2024/01/01 11:25:06;;;;;;;5.30;1.87;;;;;;;;;;2613123;54;20364;-76
2024/01/01 11:30:39;;;;;;;7.83;2.13;;;;;;;;;;2613045;54;20784;-75
2024/01/01 11:36:11;;;;;;;1.67;1.57;;;;;;;;;;2613217;54;20419;-73
2024/01/01 11:41:41;;;;;;;3.80;1.83;;;;;;;;;;2613955;39;20804;-76
2024/01/01 11:47:10;;;;;;;5.23;1.40;;;;;;;;;;2613876;46;20435;-74
2024/01/01 11:49:36;;;;;;;7.77;2.07;;;;;;;;;;2614007;54;20426;-75
2024/01/01 11:52:04;;;;;;;2.13;1.80;;;;;;;;;;2613871;54;20401;-75
2024/01/01 11:57:37;;;;;;;9.00;2.60;;;;;;;;;;2615538;54;20373;-74
2024/01/01 12:03:07;;;;;;;5.03;2.60;;;;;;;;;;2615375;54;20895;-72
2024/01/01 12:08:37;;;;;;;4.80;2.23;;;;;;;;;;2616183;39;20699;-73
2024/01/01 12:14:07;;;;;;;7.00;2.83;;;;;;;;;;2615229;54;20366;-70
2024/01/01 12:19:36;;;;;;;6.00;2.13;;;;;;;;;;2614952;39;20751;-71
2024/01/01 12:25:07;;;;;;;7.00;2.57;;;;;;;;;;2615155;54;20497;-71
2024/01/01 12:30:37;;;;;;;6.90;2.10;;;;;;;;;;2615036;54;20499;-71
2024/01/01 12:36:07;;;;;;;7.17;2.23;;;;;;;;;;2615060;54;20418;-71
2024/01/01 12:41:36;;;;;;;5.37;1.53;;;;;;;;;;2615581;54;20386;-71
2024/01/01 12:47:06;;;;;;;6.30;2.00;;;;;;;;;;2614383;46;20365;-71
2024/01/01 12:49:39;;;;;;;5.53;2.17;;;;;;;;;;2614963;54;20441;-71
2024/01/01 12:52:05;;;;;;;5.50;2.10;;;;;;;;;;2614373;54;20402;-71
2024/01/01 12:57:34;;;;;;;7.80;3.40;;;;;;;;;;2615020;54;20385;-73
2024/01/01 13:03:04;;;;;;;3.30;2.20;;;;;;;;;;2614854;54;20417;-73
2024/01/01 13:08:34;;;;;;;12.67;2.17;;;;;;;;;;2615324;54;20430;-74
2024/01/01 13:14:04;;;;;;;4.60;2.37;;;;;;;;;;2614825;54;20353;-73
2024/01/01 13:19:33;;;;;;;7.00;1.63;;;;;;;;;;2615376;54;20362;-75
2024/01/01 13:25:04;;;;;;;9.80;3.20;;;;;;;;;;2615481;54;20887;-76
2024/01/01 13:30:33;;;;;;;5.80;2.50;;;;;;;;;;2616142;39;20718;-76
2024/01/01 13:36:03;;;;;;;3.97;3.17;;;;;;;;;;2615466;54;20352;-75
2024/01/01 13:41:34;;;;;;;7.67;2.43;;;;;;;;;;2615894;54;20394;-76
2024/01/01 13:47:03;;;;;;;6.30;2.63;;;;;;;;;;2615584;54;20406;-77
2024/01/01 13:49:38;;;;;;;13.23;2.30;;;;;;;;;;2614761;47;20430;-76
2024/01/01 13:52:05;;;;;;;8.83;3.80;;;;;;;;;;2614600;47;20438;-76
2024/01/01 13:57:34;;;;;;;11.67;3.37;;;;;;;;;;2615293;54;20381;-75
2024/01/01 14:03:04;;;;;;;14.07;3.90;;;;;;;;;;2615938;31;20834;-74
2024/01/01 14:08:33;;;;;;;13.83;3.43;;;;;;;;;;2616012;54;20355;-75
2024/01/01 14:14:04;;;;;;;8.50;3.47;;;;;;;;;;2615118;54;20414;-76
2024/01/01 14:16:49;;;;;;;10.73;3.07;;;;;;;;;;2614947;54;20426;-75
2024/01/01 14:19:15;;;;;;;9.43;3.90;;;;;;;;;;2615162;54;20420;-73
2024/01/01 14:24:45;;;;;;;8.03;3.80;;;;;;;;;;2614979;54;20492;-78
2024/01/01 14:30:15;;;;;;;3.50;2.40;;;;;;;;;;2614692;54;20341;-72
2024/01/01 14:35:46;;;;;;;8.30;3.30;;;;;;;;;;2614915;54;20406;-75
2024/01/01 14:41:16;;;;;;;12.93;3.40;;;;;;;;;;2615641;39;20772;-77
2024/01/01 14:46:48;;;;;;;4.20;2.37;;;;;;;;;;2615441;39;20801;-76
2024/01/01 14:49:36;;;;;;;4.50;2.97;;;;;;;;;;2614886;54;20411;-76
2024/01/01 14:52:02;;;;;;;6.70;2.93;;;;;;;;;;2614634;54;20390;-76
2024/01/01 14:57:31;;;;;;;17.27;3.60;;;;;;;;;;2615233;54;20405;-76
2024/01/01 15:03:02;;;;;;;4.43;3.03;;;;;;;;;;2615060;54;20357;-76
2024/01/01 15:08:34;;;;;;;11.50;3.37;;;;;;;;;;2615109;54;20401;-76
2024/01/01 15:14:03;;;;;;;8.23;3.13;;;;;;;;;;2615160;54;20396;-76
2024/01/01 15:19:33;;;;;;;7.67;2.70;;;;;;;;;;2615154;54;20376;-77
2024/01/01 15:25:03;;;;;;;9.63;3.70;;;;;;;;;;2615624;54;20465;-77
2024/01/01 15:30:33;;;;;;;14.27;4.33;;;;;;;;;;2615571;54;20355;-76
2024/01/01 15:36:04;;;;;;;10.67;2.77;;;;;;;;;;2615266;54;20493;-76
2024/01/01 15:41:34;;;;;;;10.07;3.50;;;;;;;;;;2615588;54;20370;-76
2024/01/01 15:47:04;;;;;;;29.70;4.37;;;;;;;;;;2615605;54;20494;-75
2024/01/01 15:49:38;;;;;;;11.03;3.93;;;;;;;;;;2615292;54;20515;-75
2024/01/01 15:52:09;;;;;;;8.70;3.50;;;;;;;;;;2614475;47;20428;-81
2024/01/01 15:57:38;;;;;;;5.80;2.60;;;;;;;;;;2615340;54;20442;-79
2024/01/01 16:03:09;;;;;;;12.47;4.27;;;;;;;;;;2615071;54;20959;-77
2024/01/01 16:08:38;;;;;;;7.27;3.73;;;;;;;;;;2615247;54;20376;-77
2024/01/01 16:14:08;;;;;;;5.80;2.10;;;;;;;;;;2615020;54;20379;-78
2024/01/01 16:19:38;;;;;;;12.47;3.33;;;;;;;;;;2615279;54;20364;-77
2024/01/01 16:25:08;;;;;;;11.47;3.70;;;;;;;;;;2615607;39;20763;-77
2024/01/01 16:30:37;;;;;;;12.03;3.40;;;;;;;;;;2615184;54;20405;-79
2024/01/01 16:36:13;;;;;;;13.33;5.70;;;;;;;;;;2615903;39;20719;-76
2024/01/01 16:41:43;;;;;;;9.23;3.77;;;;;;;;;;2614933;54;20422;-72
2024/01/01 16:47:14;;;;;;;19.80;4.73;;;;;;;;;;2614828;54;20369;-71
2024/01/01 16:56:21;;;;;;;14.30;4.10;;;;;;;;;;2615636;39;20823;-73
2024/01/01 17:01:51;;;;;;;11.13;4.00;;;;;;;;;;2614892;54;20410;-73
2024/01/01 17:07:20;;;;;;;18.20;4.70;;;;;;;;;;2614803;54;20424;-73
2024/01/01 17:12:50;;;;;;;18.63;7.40;;;;;;;;;;2614920;39;20862;-71
2024/01/01 17:18:20;;;;;;;8.20;3.27;;;;;;;;;;2615813;39;21005;-72
2024/01/01 17:23:49;;;;;;;4.57;2.07;;;;;;;;;;2614668;54;20398;-73
2024/01/01 17:29:19;;;;;;;11.87;3.23;;;;;;;;;;2615307;39;20989;-73
2024/01/01 17:34:49;;;;;;;14.53;4.27;;;;;;;;;;2614997;54;20417;-71
2024/01/01 17:40:19;;;;;;;14.73;3.17;;;;;;;;;;2614847;54;20384;-72
2024/01/01 17:45:49;;;;;;;8.27;4.27;;;;;;;;;;2614397;54;20392;-72
2024/01/01 17:51:19;;;;;;;12.00;4.77;;;;;;;;;;2615450;54;20397;-72
2024/01/01 17:56:48;;;;;;;21.70;4.90;;;;;;;;;;2614750;46;20495;-71
2024/01/01 18:02:18;;;;;;;9.13;4.20;;;;;;;;;;2614508;54;20406;-71
2024/01/01 18:07:48;;;;;;;7.20;3.10;;;;;;;;;;2615078;54;20369;-77
2024/01/01 18:13:17;;;;;;;10.97;3.80;;;;;;;;;;2615009;54;20507;-78
2024/01/01 18:18:47;;;;;;;10.10;4.00;;;;;;;;;;2615212;54;20401;-74
2024/01/01 18:24:17;;;;;;;12.70;4.10;;;;;;;;;;2614993;54;20446;-77
2024/01/01 18:29:47;;;;;;;15.90;4.83;;;;;;;;;;2615369;39;20756;-77
2024/01/01 18:35:16;;;;;;;18.47;3.97;;;;;;;;;;2615061;54;20367;-76
2024/01/01 18:40:47;;;;;;;14.77;3.67;;;;;;;;;;2614805;54;20364;-77
2024/01/01 18:46:17;;;;;;;21.97;4.57;;;;;;;;;;2615397;39;20742;-78
2024/01/01 18:51:46;;;;;;;12.40;4.10;;;;;;;;;;2614462;54;20417;-76
2024/01/01 19:00:54;;;;;;;7.87;3.80;;;;;;;;;;2614821;54;20415;-76
2024/01/01 19:06:24;;;;;;;11.70;4.10;;;;;;;;;;2615276;39;20676;-77
2024/01/01 19:11:53;;;;;;;11.40;3.40;;;;;;;;;;2614629;54;20360;-76
2024/01/01 19:17:25;;;;;;;8.20;4.43;;;;;;;;;;2614602;54;20348;-73
2024/01/01 19:22:54;;;;;;;11.97;4.00;;;;;;;;;;2613674;54;20419;-73
2024/01/01 19:28:24;;;;;;;11.00;3.93;;;;;;;;;;2614459;54;20391;-71
2024/01/01 19:33:54;;;;;;;11.23;5.37;;;;;;;;;;2614401;54;20502;-72
2024/01/01 19:39:24;;;;;;;14.60;3.93;;;;;;;;;;2613806;54;20396;-71
2024/01/01 19:44:53;;;;;;;8.40;3.30;;;;;;;;;;2614530;54;20404;-72
2024/01/01 19:50:22;;;;;;;14.53;3.73;;;;;;;;;;2613940;54;20442;-72
2024/01/01 19:55:52;;;;;;;12.30;3.43;;;;;;;;;;2613690;54;20453;-72
2024/01/01 20:01:22;;;;;;;9.23;3.23;;;;;;;;;;2612955;54;20387;-72
2024/01/01 20:06:58;;;;;;;6.43;4.60;;;;;;;;;;2609560;54;20365;-72
2024/01/01 20:12:29;;;;;;;8.13;3.60;;;;;;;;;;2612394;54;20396;-74
2024/01/01 20:18:00;;;;;;;11.67;3.93;;;;;;;;;;2613875;39;20783;-72
2024/01/01 20:23:30;;;;;;;6.53;3.83;;;;;;;;;;2610853;54;20345;-72
2024/01/01 20:29:01;;;;;;;17.83;3.60;;;;;;;;;;2610882;54;20342;-72
2024/01/01 20:34:32;;;;;;;18.50;3.70;;;;;;;;;;2610757;54;20337;-73
2024/01/01 20:40:02;;;;;;;6.67;2.80;;;;;;;;;;2610485;54;20396;-73
2024/01/01 20:45:32;;;;;;;8.20;3.03;;;;;;;;;;2612328;54;20938;-72
2024/01/01 20:51:01;;;;;;;11.87;3.37;;;;;;;;;;2610316;54;20471;-73
2024/01/01 21:02:19;;;;;;;17.77;3.40;;;;;;;;;;2610891;54;20376;-73
2024/01/01 21:07:49;;;;;;;8.13;2.70;;;;;;;;;;2612201;54;20455;-71
2024/01/01 21:13:18;;;;;;;16.40;2.93;;;;;;;;;;2612782;54;20930;-76
2024/01/01 21:18:48;;;;;;;7.80;3.87;;;;;;;;;;2614112;54;20388;-72
2024/01/01 21:21:33;;;;;;;8.33;3.13;;;;;;;;;;2612760;49;20405;-73
2024/01/01 21:23:59;;;;;;;9.00;4.10;;;;;;;;;;2613980;39;20813;-74
2024/01/01 21:29:29;;;;;;;13.07;4.20;;;;;;;;;;2610611;54;20434;-74
2024/01/01 21:34:58;;;;;;;17.33;3.53;;;;;;;;;;2611058;39;20897;-74
2024/01/01 21:40:28;;;;;;;8.53;2.77;;;;;;;;;;2611119;54;20924;-73
2024/01/01 21:45:57;;;;;;;13.33;3.80;;;;;;;;;;2611193;54;20900;-73
2024/01/01 21:51:27;;;;;;;9.63;4.07;;;;;;;;;;2610710;54;20908;-74
2024/01/01 22:03:04;;;;;;;10.20;3.10;;;;;;;;;;2612143;39;20792;-73
2024/01/01 22:08:34;;;;;;;19.37;4.10;;;;;;;;;;2611402;54;20353;-74
2024/01/01 22:14:04;;;;;;;12.67;3.77;;;;;;;;;;2614279;54;20488;-74
2024/01/01 22:19:35;;;;;;;9.67;3.27;;;;;;;;;;2614070;54;20366;-72
2024/01/01 22:25:05;;;;;;;8.47;3.20;;;;;;;;;;2612755;54;20507;-71
2024/01/01 22:30:34;;;;;;;10.50;3.90;;;;;;;;;;2607946;54;20341;-74
2024/01/01 22:36:05;;;;;;;15.47;3.83;;;;;;;;;;2611331;39;20775;-72
2024/01/01 22:41:34;;;;;;;36.30;5.10;;;;;;;;;;2610970;54;20356;-72
2024/01/01 22:47:04;;;;;;;11.13;3.30;;;;;;;;;;2612912;54;20498;-74
2024/01/01 22:52:34;;;;;;;7.93;3.13;;;;;;;;;;2613491;46;20522;-75
2024/01/01 23:01:41;;;;;;;13.63;3.70;;;;;;;;;;2610158;54;20408;-72
2024/01/01 23:07:11;;;;;;;9.93;3.73;;;;;;;;;;2610741;54;20379;-71
2024/01/01 23:12:40;;;;;;;15.93;3.87;;;;;;;;;;2610153;54;20506;-72
2024/01/01 23:18:10;;;;;;;10.10;2.50;;;;;;;;;;2610657;54;20390;-72
2024/01/01 23:20:54;;;;;;;6.10;2.57;;;;;;;;;;2609390;47;20525;-73
2024/01/01 23:23:21;;;;;;;7.43;2.80;;;;;;;;;;2609846;54;20417;-74
2024/01/01 23:28:52;;;;;;;9.13;4.00;;;;;;;;;;2609316;54;20409;-71
2024/01/01 23:34:22;;;;;;;4.73;3.13;;;;;;;;;;2611791;39;20964;-71
2024/01/01 23:39:51;;;;;;;11.87;3.10;;;;;;;;;;2611695;54;20498;-72
2024/01/01 23:45:21;;;;;;;7.93;2.70;;;;;;;;;;2613494;54;20516;-72
2024/01/01 23:50:51;;;;;;;5.47;2.30;;;;;;;;;;2611613;47;21032;-71
2024/01/01 23:56:21;;;;;;;5.63;2.33;;;;;;;;;;2612628;54;20366;-72
